Time;durP1;ratioP1;P1;durP2;ratioP2;P2;SDS_P1;SDS_P2;PMS_P1;PMS_P2;Temp;Humidity;BMP_temperature;BMP_pressure;BME280_temperature;BME280_humidity;BME280_pressure;Samples;Min_cycle;Max_cycle;Signal;HPM_P1;HPM_P2
2022/08/16 00:00:49;;;;;;;;;;;;;;;14.27;47.51;97587.75;6221638;28;19932;-66
2022/08/16 00:03:50;;;;;;;;;;;;;;;14.21;47.71;97590.81;6220707;28;19925;-66
2022/08/16 00:06:51;;;;;;;;;;;;;;;14.19;47.85;97589.22;6220823;28;20308;-66
2022/08/16 00:09:58;;;;;;;;;;;;;;;14.21;48.45;97590.81;6221344;28;20411;-67
2022/08/16 00:13:04;;;;;;;;;;;;;;;14.26;48.89;97596.63;6221564;28;19925;-66
2022/08/16 00:16:10;;;;;;;;;;;;;;;14.19;48.58;97594.53;6224038;28;19925;-65
2022/08/16 00:19:16;;;;;;;;;;;;;;;14.18;49.08;97598.94;6225172;28;19925;-66
2022/08/16 00:22:17;;;;;;;;;;;;;;;14.22;49.01;97600.44;6225811;28;19926;-65
2022/08/16 00:25:22;;;;;;;;;;;;;;;14.17;49.11;97596.41;6225983;28;20399;-66
2022/08/16 00:28:28;;;;;;;;;;;;;;;14.11;49.14;97593.22;6225892;28;20015;-66
2022/08/16 00:31:33;;;;;;;;;;;;;;;14.17;49.55;97591.13;6225269;28;19925;-66
2022/08/16 00:34:39;;;;;;;;;;;;;;;14.15;49.47;97593.84;6225829;28;19925;-65
2022/08/16 00:37:40;;;;;;;;;;;;;;;14.14;49.79;97593.03;6224938;28;20314;-66
2022/08/16 00:40:50;;;;;;;;;;;;;;;14.09;49.67;97596.94;6225665;28;20403;-66
2022/08/16 00:43:51;;;;;;;;;;;;;;;14.06;49.52;97599.78;6225710;28;20415;-66
2022/08/16 00:47:00;;;;;;;;;;;;;;;14.05;49.68;97603.38;6208383;28;19961;-65
2022/08/16 00:50:01;;;;;;;;;;;;;;;14.11;49.51;97608.25;6225081;28;20470;-66
2022/08/16 00:53:06;;;;;;;;;;;;;;;14.09;49.63;97612.81;6224224;28;19925;-66
2022/08/16 00:56:11;;;;;;;;;;;;;;;14.05;49.92;97603.38;6225201;28;20276;-66
2022/08/16 00:59:18;;;;;;;;;;;;;;;14.07;49.76;97612.09;6224643;28;19926;-65
2022/08/16 01:02:22;;;;;;;;;;;;;;;14.08;49.82;97619.06;6225354;28;20391;-65
2022/08/16 01:05:26;;;;;;;;;;;;;;;14.07;50.10;97620.03;6223540;28;19925;-66
2022/08/16 01:08:28;;;;;;;;;;;;;;;14.08;49.75;97614.59;6223974;28;19932;-66
2022/08/16 01:11:31;;;;;;;;;;;;;;;14.10;50.21;97617.16;6224320;28;20423;-65
2022/08/16 01:14:43;;;;;;;;;;;;;;;14.17;49.47;97620.22;6224394;28;19925;-65
2022/08/16 01:17:45;;;;;;;;;;;;;;;14.24;49.69;97618.84;6224743;28;19948;-66
2022/08/16 01:21:19;;;;;;;;;;;;;;;14.28;49.83;97621.19;6225037;28;19933;-65
2022/08/16 01:24:38;;;;;;;;;;;;;;;14.40;49.32;97626.63;6209475;28;19929;-66
2022/08/16 01:27:51;;;;;;;;;;;;;;;14.41;49.49;97621.22;6224634;28;19925;-65
2022/08/16 01:30:56;;;;;;;;;;;;;;;14.47;49.74;97619.97;6224825;28;19934;-66
2022/08/16 01:33:58;;;;;;;;;;;;;;;14.57;49.30;97626.34;6223502;28;20383;-65
2022/08/16 01:37:02;;;;;;;;;;;;;;;14.64;49.40;97627.63;6224187;28;20387;-65
2022/08/16 01:40:05;;;;;;;;;;;;;;;14.66;49.04;97625.69;6224155;28;19925;-66
2022/08/16 01:43:08;;;;;;;;;;;;;;;14.70;48.81;97631.63;6224117;28;19925;-66
2022/08/16 01:46:21;;;;;;;;;;;;;;;14.72;49.00;97625.28;6224298;28;19925;-65
2022/08/16 01:49:27;;;;;;;;;;;;;;;14.80;48.87;97627.38;6224040;28;19921;-65
2022/08/16 01:52:31;;;;;;;;;;;;;;;14.82;48.60;97625.47;6223363;28;19932;-64
2022/08/16 01:55:35;;;;;;;;;;;;;;;14.84;48.93;97628.88;6223892;28;19926;-66
2022/08/16 01:58:37;;;;;;;;;;;;;;;14.89;48.75;97631.19;6223113;28;19925;-65
2022/08/16 02:01:43;;;;;;;;;;;;;;;14.93;48.78;97632.69;6223738;28;19921;-65
2022/08/16 02:04:44;;;;;;;;;;;;;;;14.98;48.63;97634.06;6223159;28;20094;-66
2022/08/16 02:07:45;;;;;;;;;;;;;;;15.00;49.08;97634.81;6205688;28;19956;-66
2022/08/16 02:10:48;;;;;;;;;;;;;;;15.05;48.44;97637.09;6222951;28;20395;-66
2022/08/16 02:13:50;;;;;;;;;;;;;;;15.12;48.74;97643.69;6222906;28;19933;-66
2022/08/16 02:16:51;;;;;;;;;;;;;;;15.22;48.60;97644.69;6222128;28;19925;-65
2022/08/16 02:19:55;;;;;;;;;;;;;;;15.31;48.81;97642.34;6223496;28;19925;-65
2022/08/16 02:22:57;;;;;;;;;;;;;;;15.39;48.13;97640.00;6221982;28;19925;-66
2022/08/16 02:26:00;;;;;;;;;;;;;;;15.43;48.27;97642.34;6223025;28;20028;-65
2022/08/16 02:29:02;;;;;;;;;;;;;;;15.49;48.42;97649.00;6223226;28;20318;-65
2022/08/16 02:32:04;;;;;;;;;;;;;;;15.53;48.44;97645.16;6222554;28;20402;-65
2022/08/16 02:35:12;;;;;;;;;;;;;;;15.54;48.25;97649.53;6223031;28;19926;-67
2022/08/16 02:38:13;;;;;;;;;;;;;;;15.59;48.17;97647.34;6221700;28;19926;-66
2022/08/16 02:41:14;;;;;;;;;;;;;;;15.64;48.04;97645.22;6221664;28;19925;-66
2022/08/16 02:44:21;;;;;;;;;;;;;;;15.73;48.07;97649.03;6222914;28;19925;-66
2022/08/16 02:47:24;;;;;;;;;;;;;;;15.76;48.20;97647.97;6222733;28;19972;-65
2022/08/16 02:50:25;;;;;;;;;;;;;;;15.85;48.04;97648.16;6221614;28;19952;-66
2022/08/16 02:53:26;;;;;;;;;;;;;;;15.90;48.14;97645.13;6222587;28;20116;-65
2022/08/16 02:56:30;;;;;;;;;;;;;;;15.98;47.89;97640.09;6222432;28;19925;-66
2022/08/16 02:59:33;;;;;;;;;;;;;;;16.07;47.83;97642.06;6222556;28;19925;-66
2022/08/16 03:02:37;;;;;;;;;;;;;;;16.17;47.78;97647.56;6221828;28;20331;-66
2022/08/16 03:05:38;;;;;;;;;;;;;;;16.23;47.72;97646.25;6222241;28;19937;-67
2022/08/16 03:08:41;;;;;;;;;;;;;;;16.23;47.58;97646.25;6222144;28;20019;-66
2022/08/16 03:11:45;;;;;;;;;;;;;;;16.29;47.56;97643.13;6222358;28;19947;-66
2022/08/16 03:14:48;;;;;;;;;;;;;;;16.36;47.39;97642.53;6221603;28;20859;-65
2022/08/16 03:17:52;;;;;;;;;;;;;;;16.43;47.27;97642.91;6222007;28;19926;-66
2022/08/16 03:20:55;;;;;;;;;;;;;;;16.53;47.19;97638.59;6204500;28;19932;-66
2022/08/16 03:23:59;;;;;;;;;;;;;;;16.64;46.91;97639.56;6221918;28;20056;-65
2022/08/16 03:27:00;;;;;;;;;;;;;;;16.69;46.60;97642.72;6220951;28;20315;-66
2022/08/16 03:30:05;;;;;;;;;;;;;;;16.76;46.54;97641.28;6221285;28;19999;-66
2022/08/16 03:33:06;;;;;;;;;;;;;;;16.83;46.33;97645.19;6221150;28;19976;-66
2022/08/16 03:36:08;;;;;;;;;;;;;;;16.88;46.37;97648.34;6221354;28;19932;-66
2022/08/16 03:39:13;;;;;;;;;;;;;;;16.96;46.24;97651.25;6221395;28;20398;-66
2022/08/16 03:42:15;;;;;;;;;;;;;;;17.09;45.96;97656.44;6221237;28;19953;-65
2022/08/16 03:45:18;;;;;;;;;;;;;;;17.18;45.98;97649.53;6220613;28;19932;-65
2022/08/16 03:48:23;;;;;;;;;;;;;;;17.25;45.99;97650.75;6221570;28;20319;-66
2022/08/16 03:51:24;;;;;;;;;;;;;;;17.38;45.39;97650.59;6220491;28;20321;-66
2022/08/16 03:54:25;;;;;;;;;;;;;;;17.46;45.57;97645.50;6221042;28;19999;-66
2022/08/16 03:57:28;;;;;;;;;;;;;;;17.55;45.34;97635.94;6220566;28;19932;-65
2022/08/16 04:00:31;;;;;;;;;;;;;;;17.71;44.90;97641.72;6220596;28;19926;-65
2022/08/16 04:03:34;;;;;;;;;;;;;;;17.89;44.72;97640.25;6221384;28;20331;-65
2022/08/16 04:06:38;;;;;;;;;;;;;;;17.99;44.54;97644.81;6221394;28;20435;-66
2022/08/16 04:09:41;;;;;;;;;;;;;;;18.07;44.07;97637.03;6220545;28;19925;-66
2022/08/16 04:12:45;;;;;;;;;;;;;;;18.22;44.08;97641.06;6220953;28;19925;-65
2022/08/16 04:15:46;;;;;;;;;;;;;;;18.28;43.92;97640.56;6220848;28;19926;-66
2022/08/16 04:18:49;;;;;;;;;;;;;;;18.45;43.87;97646.28;6220164;28;20321;-66
2022/08/16 04:21:56;;;;;;;;;;;;;;;18.57;43.61;97646.09;6221209;28;20444;-66
2022/08/16 04:24:59;;;;;;;;;;;;;;;18.71;43.40;97642.25;6221342;28;19937;-66
2022/08/16 04:28:03;;;;;;;;;;;;;;;18.86;42.65;97644.63;6220503;28;19948;-66
2022/08/16 04:31:05;;;;;;;;;;;;;;;19.03;42.88;97641.31;6220316;28;19925;-65
2022/08/16 04:34:09;;;;;;;;;;;;;;;19.19;42.34;97644.34;6220885;28;19926;-67
2022/08/16 04:37:10;;;;;;;;;;;;;;;19.36;41.88;97648.19;6220369;28;19933;-66
2022/08/16 04:40:12;;;;;;;;;;;;;;;19.50;41.49;97644.28;6220290;28;19926;-66
2022/08/16 04:43:17;;;;;;;;;;;;;;;19.65;41.46;97642.09;6220988;28;19925;-66
2022/08/16 04:46:23;;;;;;;;;;;;;;;19.84;40.82;97646.63;6220678;28;19929;-66
2022/08/16 04:49:26;;;;;;;;;;;;;;;19.99;40.55;97653.28;6219571;28;19932;-66
2022/08/16 04:52:30;;;;;;;;;;;;;;;20.16;40.32;97652.56;6220783;28;19937;-66
2022/08/16 04:55:32;;;;;;;;;;;;;;;20.43;39.27;97653.69;6219727;28;20032;-65
2022/08/16 04:58:38;;;;;;;;;;;;;;;21.37;38.16;97660.94;6220546;28;20391;-66
2022/08/16 05:01:41;;;;;;;;;;;;;;;25.87;32.37;97674.41;6222142;28;19925;-65
2022/08/16 05:04:47;;;;;;;;;;;;;;;30.91;27.12;97676.38;6225139;28;19926;-64
2022/08/16 05:07:48;;;;;;;;;;;;;;;34.88;22.92;97681.69;6224263;28;19933;-65
2022/08/16 05:10:52;;;;;;;;;;;;;;;38.04;20.99;97680.56;6224997;28;19925;-66
2022/08/16 05:13:55;;;;;;;;;;;;;;;40.01;19.37;97682.78;6224880;28;19932;-66
2022/08/16 05:16:59;;;;;;;;;;;;;;;41.78;18.39;97683.16;6224914;28;20023;-65
2022/08/16 05:20:04;;;;;;;;;;;;;;;43.54;16.44;97688.13;6224801;28;19926;-65
2022/08/16 05:23:10;;;;;;;;;;;;;;;44.52;15.25;97682.25;6224886;28;19929;-66
2022/08/16 05:26:14;;;;;;;;;;;;;;;46.10;13.81;97685.03;6224512;28;19931;-65
2022/08/16 05:29:15;;;;;;;;;;;;;;;47.27;13.86;97688.19;6224062;28;19925;-66
2022/08/16 05:32:19;;;;;;;;;;;;;;;48.28;11.25;97694.88;6224362;28;19945;-65
2022/08/16 05:35:20;;;;;;;;;;;;;;;49.34;13.10;97695.38;6223381;28;20032;-65
2022/08/16 05:38:26;;;;;;;;;;;;;;;50.21;11.82;97688.59;6223235;28;20019;-66
2022/08/16 05:41:27;;;;;;;;;;;;;;;51.16;7.59;97678.66;6223470;28;19925;-65
2022/08/16 05:44:31;;;;;;;;;;;;;;;52.14;11.42;97686.38;6223103;28;20438;-65
2022/08/16 05:47:33;;;;;;;;;;;;;;;52.92;8.41;97688.78;6222693;28;20300;-65
2022/08/16 05:50:34;;;;;;;;;;;;;;;53.93;9.40;97680.22;6223346;28;20519;-66
2022/08/16 05:53:37;;;;;;;;;;;;;;;54.74;6.33;97679.69;6223828;28;20023;-65
2022/08/16 05:56:41;;;;;;;;;;;;;;;55.12;8.01;97674.03;6223019;28;20028;-65
2022/08/16 05:59:42;;;;;;;;;;;;;;;54.92;6.35;97675.19;6223762;28;19925;-65
2022/08/16 06:02:48;;;;;;;;;;;;;;;55.43;6.47;97666.53;6223756;28;20411;-65
2022/08/16 06:05:49;;;;;;;;;;;;;;;56.07;5.13;97672.44;6222803;28;20387;-64
2022/08/16 06:08:50;;;;;;;;;;;;;;;56.67;7.83;97671.69;6223002;28;19925;-65
2022/08/16 06:11:52;;;;;;;;;;;;;;;57.12;7.42;97676.25;6222869;28;19926;-65
2022/08/16 06:14:57;;;;;;;;;;;;;;;57.55;6.85;97678.75;6222258;28;19929;-65
2022/08/16 06:17:59;;;;;;;;;;;;;;;57.82;6.09;97668.06;6222902;28;19930;-65
2022/08/16 06:21:03;;;;;;;;;;;;;;;57.56;6.01;97671.91;6223745;28;19925;-65
2022/08/16 06:24:05;;;;;;;;;;;;;;;57.45;6.02;97660.44;6222955;28;19928;-64
2022/08/16 06:27:11;;;;;;;;;;;;;;;57.91;5.35;97670.56;6223261;28;19925;-65
2022/08/16 06:30:15;;;;;;;;;;;;;;;58.64;5.79;97662.91;6223064;28;19921;-65
2022/08/16 06:33:18;;;;;;;;;;;;;;;59.39;4.17;97662.31;6225549;28;19925;-65
2022/08/16 06:36:22;;;;;;;;;;;;;;;59.70;4.84;97665.59;6238701;28;19926;-65
2022/08/16 06:39:24;;;;;;;;;;;;;;;59.33;3.87;97663.94;6239744;28;19932;-64
2022/08/16 06:42:27;;;;;;;;;;;;;;;58.02;4.58;97660.13;6223271;28;20047;-65
2022/08/16 06:45:36;;;;;;;;;;;;;;;58.08;4.45;97657.75;6222837;28;19925;-67
2022/08/16 06:48:40;;;;;;;;;;;;;;;57.72;3.25;97652.59;6222152;28;19932;-64
2022/08/16 06:51:43;;;;;;;;;;;;;;;57.76;3.71;97647.81;6222013;28;19929;-65
2022/08/16 06:54:45;;;;;;;;;;;;;;;58.43;3.69;97651.47;6222580;28;19925;-66
2022/08/16 06:57:50;;;;;;;;;;;;;;;59.23;4.16;97647.69;6205067;28;19966;-65
2022/08/16 07:00:54;;;;;;;;;;;;;;;59.19;3.81;97646.88;6222529;28;19926;-64
2022/08/16 07:03:58;;;;;;;;;;;;;;;58.66;3.89;97637.84;6222061;28;19925;-65
2022/08/16 07:07:02;;;;;;;;;;;;;;;57.55;3.89;97624.97;6221986;28;19931;-65
2022/08/16 07:10:06;;;;;;;;;;;;;;;56.42;3.70;97620.47;6222150;28;19931;-65
2022/08/16 07:13:10;;;;;;;;;;;;;;;55.45;4.22;97619.00;6204576;28;19925;-65
2022/08/16 07:16:15;;;;;;;;;;;;;;;56.40;3.59;97606.75;6221782;28;20293;-65
2022/08/16 07:19:19;;;;;;;;;;;;;;;55.85;4.32;97608.34;6221843;28;20391;-64
2022/08/16 07:22:22;;;;;;;;;;;;;;;55.01;4.74;97599.69;6221879;28;19925;-65
2022/08/16 07:25:25;;;;;;;;;;;;;;;55.43;3.95;97598.81;6221681;28;20067;-65
2022/08/16 07:28:28;;;;;;;;;;;;;;;56.31;3.67;97602.56;6221789;28;20032;-65
2022/08/16 07:31:32;;;;;;;;;;;;;;;57.20;3.92;97614.94;6221692;28;19952;-65
2022/08/16 07:34:35;;;;;;;;;;;;;;;57.44;3.64;97607.06;6221861;28;19925;-65
2022/08/16 07:37:38;;;;;;;;;;;;;;;58.50;2.63;97597.66;6221735;28;19925;-64
2022/08/16 07:40:42;;;;;;;;;;;;;;;58.89;2.82;97594.94;6221336;28;19926;-65
2022/08/16 07:43:45;;;;;;;;;;;;;;;57.16;3.16;97597.13;6221839;28;19925;-65
2022/08/16 07:46:48;;;;;;;;;;;;;;;57.60;3.58;97593.47;6221605;28;19925;-64
2022/08/16 07:49:53;;;;;;;;;;;;;;;58.91;2.74;97588.88;6221419;28;19925;-65
2022/08/16 07:52:56;;;;;;;;;;;;;;;59.66;2.76;97590.97;6221309;28;20327;-65
2022/08/16 07:55:59;;;;;;;;;;;;;;;58.50;3.43;97592.00;6221417;28;19925;-65
2022/08/16 07:59:02;;;;;;;;;;;;;;;57.96;3.36;97579.56;6221425;28;19925;-65
2022/08/16 08:02:06;;;;;;;;;;;;;;;57.73;3.36;97591.94;6221395;28;19926;-66
2022/08/16 08:05:10;;;;;;;;;;;;;;;57.90;3.56;97586.78;6221313;28;19925;-65
2022/08/16 08:08:14;;;;;;;;;;;;;;;58.52;3.48;97585.91;6221296;28;20426;-66
2022/08/16 08:11:19;;;;;;;;;;;;;;;59.26;3.05;97590.13;6203683;28;19925;-65
2022/08/16 08:14:46;;;;;;;;;;;;;;;57.81;3.34;97587.16;6221846;28;19925;-65
2022/08/16 08:17:49;;;;;;;;;;;;;;;57.78;3.04;97587.94;6221231;28;20323;-64
2022/08/16 08:20:53;;;;;;;;;;;;;;;57.43;3.20;97582.81;6221184;28;19932;-65
2022/08/16 08:23:56;;;;;;;;;;;;;;;56.01;3.91;97577.97;6221335;28;19925;-64
2022/08/16 08:27:00;;;;;;;;;;;;;;;55.97;3.49;97575.09;6221228;28;20001;-65
2022/08/16 08:30:06;;;;;;;;;;;;;;;55.69;3.48;97566.16;6221021;28;19925;-65
2022/08/16 08:33:11;;;;;;;;;;;;;;;55.60;3.56;97570.06;6221158;28;19926;-65
2022/08/16 08:36:19;;;;;;;;;;;;;;;55.51;3.55;97569.50;6222007;28;20024;-65
2022/08/16 08:39:24;;;;;;;;;;;;;;;56.12;3.69;97555.53;6225859;28;19925;-65
2022/08/16 08:42:27;;;;;;;;;;;;;;;56.95;3.13;97575.09;6225531;28;20028;-65
2022/08/16 08:45:31;;;;;;;;;;;;;;;57.60;3.25;97570.81;6225779;28;19932;-66
2022/08/16 08:48:36;;;;;;;;;;;;;;;58.26;3.10;97572.84;6225640;28;19925;-65
2022/08/16 08:51:40;;;;;;;;;;;;;;;58.70;2.54;97574.66;6225253;28;20391;-65
2022/08/16 08:54:43;;;;;;;;;;;;;;;58.88;2.91;97572.66;6224922;28;19925;-66
2022/08/16 08:57:46;;;;;;;;;;;;;;;58.91;2.69;97569.00;6224984;28;19948;-66
2022/08/16 09:00:50;;;;;;;;;;;;;;;58.97;2.25;97575.13;6206976;28;19925;-65
2022/08/16 09:03:53;;;;;;;;;;;;;;;58.89;2.21;97568.59;6225094;28;20350;-65
2022/08/16 09:06:57;;;;;;;;;;;;;;;59.12;2.25;97571.09;6225288;28;19929;-66
2022/08/16 09:10:02;;;;;;;;;;;;;;;59.19;2.77;97567.44;6225137;28;19933;-64
2022/08/16 09:13:06;;;;;;;;;;;;;;;59.39;2.85;97577.19;6207289;28;19925;-66
2022/08/16 09:16:09;;;;;;;;;;;;;;;57.99;3.01;97570.28;6224862;28;19948;-66
2022/08/16 09:19:12;;;;;;;;;;;;;;;56.46;3.13;97568.47;6224887;28;19988;-65
2022/08/16 09:22:17;;;;;;;;;;;;;;;55.98;3.18;97556.94;6224733;28;19932;-65
2022/08/16 09:25:21;;;;;;;;;;;;;;;56.14;3.41;97564.41;6224614;28;20008;-66
2022/08/16 09:28:24;;;;;;;;;;;;;;;56.16;3.19;97562.00;6224636;28;19926;-64
2022/08/16 09:31:28;;;;;;;;;;;;;;;56.67;2.92;97561.44;6224784;28;20387;-65
2022/08/16 09:34:32;;;;;;;;;;;;;;;56.61;2.75;97555.34;6224241;28;19925;-65
2022/08/16 09:37:35;;;;;;;;;;;;;;;56.62;2.87;97551.28;6224295;28;19926;-65
2022/08/16 09:40:42;;;;;;;;;;;;;;;56.98;2.90;97556.53;6224548;28;19926;-65
2022/08/16 09:43:45;;;;;;;;;;;;;;;56.75;2.84;97549.00;6207062;28;20311;-65
2022/08/16 09:46:49;;;;;;;;;;;;;;;56.73;2.79;97548.59;6223976;28;19991;-65
2022/08/16 09:49:53;;;;;;;;;;;;;;;56.41;3.19;97540.56;6223617;28;20019;-65
2022/08/16 09:52:55;;;;;;;;;;;;;;;54.93;3.17;97535.88;6224058;28;19925;-65
2022/08/16 09:56:00;;;;;;;;;;;;;;;52.96;3.96;97521.03;6224048;28;19925;-65
2022/08/16 09:59:05;;;;;;;;;;;;;;;52.58;4.27;97521.63;6206229;28;19929;-66
2022/08/16 10:02:08;;;;;;;;;;;;;;;53.17;3.90;97517.19;6206071;28;20039;-65
2022/08/16 10:05:11;;;;;;;;;;;;;;;53.33;3.97;97522.75;6206272;28;20315;-65
2022/08/16 10:08:17;;;;;;;;;;;;;;;53.61;3.71;97512.19;6223500;28;20402;-65
2022/08/16 10:14:42;;;;;;;;;;;;;;;52.41;4.24;97511.53;6223373;28;20322;-64
2022/08/16 10:17:47;;;;;;;;;;;;;;;52.44;4.27;97510.00;6223222;28;19925;-64
2022/08/16 10:20:50;;;;;;;;;;;;;;;52.55;4.40;97508.28;6223508;28;19931;-64
2022/08/16 10:23:55;;;;;;;;;;;;;;;52.06;4.35;97503.69;6223283;28;19933;-66
2022/08/16 10:26:59;;;;;;;;;;;;;;;51.24;4.61;97497.47;6223237;28;19925;-65
2022/08/16 10:30:03;;;;;;;;;;;;;;;50.83;4.69;97483.31;6223140;28;20387;-65
2022/08/16 10:33:07;;;;;;;;;;;;;;;51.16;4.60;97488.84;6223042;28;19980;-66
2022/08/16 10:36:12;;;;;;;;;;;;;;;51.41;4.69;97491.63;6223210;28;19925;-65
2022/08/16 10:39:15;;;;;;;;;;;;;;;51.26;4.75;97495.13;6222956;28;19925;-65
2022/08/16 10:42:21;;;;;;;;;;;;;;;51.11;4.84;97488.25;6222791;28;20399;-66
2022/08/16 10:45:24;;;;;;;;;;;;;;;50.98;4.71;97482.63;6222683;28;19932;-65
2022/08/16 10:48:28;;;;;;;;;;;;;;;50.92;4.87;97486.00;6222661;28;19925;-66
2022/08/16 10:51:31;;;;;;;;;;;;;;;50.61;4.90;97481.72;6222452;28;20299;-65
2022/08/16 10:54:35;;;;;;;;;;;;;;;49.53;5.39;97470.47;6222491;28;19925;-65
2022/08/16 10:57:39;;;;;;;;;;;;;;;47.49;6.02;97467.94;6222213;28;20383;-65
2022/08/16 11:00:42;;;;;;;;;;;;;;;46.59;6.62;97465.41;6221699;28;19925;-66
2022/08/16 11:03:45;;;;;;;;;;;;;;;46.48;6.53;97461.28;6221941;28;20311;-65
2022/08/16 11:06:49;;;;;;;;;;;;;;;45.58;6.87;97461.19;6222449;28;20395;-66
2022/08/16 11:09:52;;;;;;;;;;;;;;;44.26;7.73;97462.63;6222251;28;19926;-65
2022/08/16 11:12:55;;;;;;;;;;;;;;;43.96;7.50;97462.00;6221776;28;19921;-66
2022/08/16 11:15:59;;;;;;;;;;;;;;;44.45;7.54;97457.88;6221936;28;19936;-65
2022/08/16 11:19:05;;;;;;;;;;;;;;;45.07;7.12;97452.00;6222227;28;20015;-65
2022/08/16 11:22:08;;;;;;;;;;;;;;;45.35;7.10;97458.34;6222312;28;19929;-65
2022/08/16 11:25:11;;;;;;;;;;;;;;;45.52;7.19;97460.50;6221892;28;20295;-65
2022/08/16 11:28:15;;;;;;;;;;;;;;;45.73;7.15;97460.03;6221790;28;20315;-64
2022/08/16 11:31:18;;;;;;;;;;;;;;;45.65;7.23;97458.81;6222026;28;19929;-65
2022/08/16 11:34:22;;;;;;;;;;;;;;;44.50;7.64;97454.97;6204355;28;19925;-65
2022/08/16 11:37:25;;;;;;;;;;;;;;;43.07;8.74;97453.50;6221740;28;20016;-65
2022/08/16 11:40:30;;;;;;;;;;;;;;;42.50;9.11;97447.75;6221682;28;19925;-66
2022/08/16 11:43:35;;;;;;;;;;;;;;;42.43;8.88;97444.47;6221537;28;19921;-65
2022/08/16 11:46:39;;;;;;;;;;;;;;;42.50;8.76;97436.69;6221495;28;19929;-65
2022/08/16 11:49:44;;;;;;;;;;;;;;;42.37;8.82;97435.41;6221571;28;19926;-65
2022/08/16 11:52:47;;;;;;;;;;;;;;;42.23;9.31;97435.22;6221347;28;19926;-66
2022/08/16 11:55:52;;;;;;;;;;;;;;;41.93;9.38;97426.09;6220988;28;19925;-65
2022/08/16 11:58:56;;;;;;;;;;;;;;;41.65;9.45;97426.84;6220756;28;19933;-65
2022/08/16 12:01:59;;;;;;;;;;;;;;;41.00;9.80;97432.38;6221491;28;19939;-66
2022/08/16 12:05:03;;;;;;;;;;;;;;;40.60;10.00;97429.44;6221183;28;19926;-65
2022/08/16 12:08:06;;;;;;;;;;;;;;;40.42;10.17;97427.28;6220969;28;19925;-65
2022/08/16 12:11:15;;;;;;;;;;;;;;;40.21;10.13;97426.50;6221915;28;19925;-65
2022/08/16 12:14:23;;;;;;;;;;;;;;;40.06;10.46;97419.03;6225885;28;20314;-65
2022/08/16 12:17:28;;;;;;;;;;;;;;;39.51;10.77;97412.34;6208149;28;19925;-65
2022/08/16 12:20:34;;;;;;;;;;;;;;;39.04;11.21;97413.31;6225688;28;19925;-65
2022/08/16 12:23:37;;;;;;;;;;;;;;;38.59;11.32;97412.78;6225991;28;19925;-65
2022/08/16 12:26:41;;;;;;;;;;;;;;;38.52;11.67;97411.38;6225583;28;19925;-65
2022/08/16 12:29:44;;;;;;;;;;;;;;;38.48;11.54;97410.25;6225605;28;19926;-65
2022/08/16 12:32:47;;;;;;;;;;;;;;;38.11;11.69;97422.06;6225698;28;19946;-65
2022/08/16 12:35:50;;;;;;;;;;;;;;;37.90;11.79;97410.03;6225351;28;19925;-66
2022/08/16 12:38:54;;;;;;;;;;;;;;;37.81;11.75;97409.69;6225332;28;19925;-65
2022/08/16 12:41:58;;;;;;;;;;;;;;;37.58;12.52;97407.31;6225377;28;19926;-65
2022/08/16 12:45:03;;;;;;;;;;;;;;;37.30;11.96;97411.94;6225204;28;20024;-65
2022/08/16 12:51:31;;;;;;;;;;;;;;;37.02;12.10;97402.00;6225127;28;19930;-65
2022/08/16 12:54:36;;;;;;;;;;;;;;;36.82;12.55;97405.28;6225229;28;19926;-65
2022/08/16 12:57:39;;;;;;;;;;;;;;;36.69;12.65;97405.66;6225211;28;19925;-66
2022/08/16 13:00:43;;;;;;;;;;;;;;;36.44;12.81;97397.91;6225026;28;19925;-65
2022/08/16 13:03:45;;;;;;;;;;;;;;;36.08;13.07;97398.22;6224535;28;20020;-65
2022/08/16 13:06:49;;;;;;;;;;;;;;;35.91;13.04;97400.09;6225068;28;20091;-66
2022/08/16 13:09:57;;;;;;;;;;;;;;;35.72;12.93;97400.31;6225226;28;19925;-65
2022/08/16 13:13:04;;;;;;;;;;;;;;;35.27;13.53;97395.69;6224905;28;19925;-66
2022/08/16 13:16:08;;;;;;;;;;;;;;;34.68;13.68;97392.28;6224807;28;19925;-66
2022/08/16 13:19:12;;;;;;;;;;;;;;;33.87;14.58;97408.41;6224572;28;19961;-66
2022/08/16 13:22:15;;;;;;;;;;;;;;;33.01;15.34;97399.56;6223961;28;19926;-66
2022/08/16 13:25:20;;;;;;;;;;;;;;;32.45;15.71;97397.06;6224283;28;19925;-66
2022/08/16 13:28:23;;;;;;;;;;;;;;;32.06;15.82;97390.94;6224315;28;20392;-65
2022/08/16 13:31:27;;;;;;;;;;;;;;;31.81;15.75;97388.19;6223839;28;19931;-66
2022/08/16 13:34:31;;;;;;;;;;;;;;;31.53;16.19;97386.72;6223738;28;19925;-66
2022/08/16 13:37:34;;;;;;;;;;;;;;;31.38;15.87;97380.78;6224210;28;19981;-66
2022/08/16 13:40:37;;;;;;;;;;;;;;;31.16;16.38;97386.53;6207076;28;19925;-65
2022/08/16 13:43:41;;;;;;;;;;;;;;;30.97;16.49;97387.47;6224181;28;20016;-66
2022/08/16 13:46:46;;;;;;;;;;;;;;;30.82;16.53;97388.56;6223720;28;20307;-65
2022/08/16 13:49:50;;;;;;;;;;;;;;;30.76;16.66;97392.13;6223542;28;19925;-64
2022/08/16 13:52:54;;;;;;;;;;;;;;;30.69;16.38;97391.34;6223877;28;19929;-65
2022/08/16 13:55:58;;;;;;;;;;;;;;;30.73;16.44;97392.56;6223831;28;19925;-66
2022/08/16 13:59:01;;;;;;;;;;;;;;;30.77;16.86;97388.38;6223557;28;19968;-65
2022/08/16 14:02:05;;;;;;;;;;;;;;;30.67;16.94;97392.59;6223786;28;19925;-65
2022/08/16 14:05:09;;;;;;;;;;;;;;;30.48;17.10;97383.44;6205896;28;19921;-65
2022/08/16 14:08:12;;;;;;;;;;;;;;;30.12;17.26;97396.47;6223061;28;19926;-65
2022/08/16 14:11:16;;;;;;;;;;;;;;;29.89;17.55;97386.03;6222944;28;19926;-66
2022/08/16 14:14:19;;;;;;;;;;;;;;;29.63;17.86;97392.28;6223121;28;19926;-66
2022/08/16 14:17:22;;;;;;;;;;;;;;;29.38;17.68;97389.31;6223332;28;19925;-65
2022/08/16 14:20:25;;;;;;;;;;;;;;;29.23;18.13;97394.09;6205548;28;19925;-66
2022/08/16 14:23:28;;;;;;;;;;;;;;;29.05;18.19;97395.50;6223212;28;19925;-66
2022/08/16 14:26:31;;;;;;;;;;;;;;;28.92;17.99;97398.13;6223163;28;19926;-65
2022/08/16 14:29:36;;;;;;;;;;;;;;;28.72;18.59;97399.94;6223192;28;19925;-66
2022/08/16 14:32:40;;;;;;;;;;;;;;;28.60;18.34;97396.97;6222997;28;19929;-64
2022/08/16 14:35:44;;;;;;;;;;;;;;;28.36;18.31;97407.19;6222132;28;19925;-66
2022/08/16 14:38:47;;;;;;;;;;;;;;;28.14;18.67;97413.75;6222757;28;19925;-66
2022/08/16 14:41:51;;;;;;;;;;;;;;;27.94;19.16;97413.56;6222906;28;20403;-66
2022/08/16 14:44:55;;;;;;;;;;;;;;;27.64;20.21;97418.31;6222599;28;19930;-66
2022/08/16 14:48:00;;;;;;;;;;;;;;;27.35;20.09;97419.28;6222188;28;19925;-65
2022/08/16 14:51:03;;;;;;;;;;;;;;;27.06;20.29;97420.97;6222380;28;20296;-65
2022/08/16 14:54:06;;;;;;;;;;;;;;;26.83;20.81;97416.56;6222448;28;19929;-66
2022/08/16 14:57:10;;;;;;;;;;;;;;;26.60;20.40;97421.25;6222381;28;20012;-65
2022/08/16 15:00:16;;;;;;;;;;;;;;;26.39;20.97;97430.91;6222265;28;19926;-65
2022/08/16 15:03:22;;;;;;;;;;;;;;;26.21;21.34;97430.44;6222185;28;19933;-65
2022/08/16 15:06:25;;;;;;;;;;;;;;;25.97;21.44;97437.75;6221926;28;19926;-66
2022/08/16 15:09:31;;;;;;;;;;;;;;;25.81;21.80;97437.84;6220817;28;20478;-65
2022/08/16 15:12:35;;;;;;;;;;;;;;;25.57;21.81;97438.06;6222142;28;19926;-66
2022/08/16 15:15:39;;;;;;;;;;;;;;;25.38;22.12;97440.22;6222254;28;19965;-66
2022/08/16 15:18:43;;;;;;;;;;;;;;;25.21;22.46;97441.34;6221954;28;19931;-66
2022/08/16 15:21:47;;;;;;;;;;;;;;;25.07;22.57;97449.13;6222012;28;19937;-66
2022/08/16 15:24:51;;;;;;;;;;;;;;;24.86;22.61;97448.91;6222171;28;20016;-66
2022/08/16 15:27:55;;;;;;;;;;;;;;;24.62;22.85;97453.38;6221619;28;20292;-66
2022/08/16 15:31:02;;;;;;;;;;;;;;;24.47;23.04;97454.28;6221522;28;19980;-65
2022/08/16 15:34:05;;;;;;;;;;;;;;;24.34;23.02;97454.78;6221730;28;19925;-66
2022/08/16 15:37:09;;;;;;;;;;;;;;;24.22;23.16;97450.78;6221520;28;19926;-66
2022/08/16 15:40:15;;;;;;;;;;;;;;;24.08;23.12;97461.22;6221775;28;20421;-66
2022/08/16 15:43:19;;;;;;;;;;;;;;;23.94;23.17;97464.59;6221698;28;20407;-66
2022/08/16 15:46:22;;;;;;;;;;;;;;;23.84;23.30;97474.69;6221366;28;19925;-65
2022/08/16 15:49:25;;;;;;;;;;;;;;;23.68;23.43;97476.31;6221444;28;19926;-65
2022/08/16 15:52:30;;;;;;;;;;;;;;;23.61;23.49;97475.31;6221522;28;19925;-66
2022/08/16 15:55:34;;;;;;;;;;;;;;;23.49;23.88;97480.16;6221405;28;19925;-66
2022/08/16 15:58:37;;;;;;;;;;;;;;;23.39;24.10;97482.16;6221484;28;20255;-66
2022/08/16 16:01:40;;;;;;;;;;;;;;;23.28;24.24;97488.69;6221242;28;20001;-66
2022/08/16 16:04:44;;;;;;;;;;;;;;;23.16;24.65;97487.31;6220852;28;19925;-65
2022/08/16 16:07:47;;;;;;;;;;;;;;;23.05;24.25;97484.94;6221068;28;20299;-65